Time;durP1;ratioP1;P1;durP2;ratioP2;P2;SDS_P1;SDS_P2;PMS_P1;PMS_P2;Temp;Humidity;BMP_temperature;BMP_pressure;BME280_temperature;BME280_humidity;BME280_pressure;Samples;Min_cycle;Max_cycle;Signal;HPM_P1;HPM_P2
2023/01/25 00:00:22;;;;;;;23.85;14.23;;;;;;;1.27;100.00;102157.75;5062309;28;20487;-83
2023/01/25 00:02:48;;;;;;;25.55;15.43;;;;;;;1.35;100.00;102166.59;5076766;28;20052;-82
2023/01/25 00:05:15;;;;;;;24.20;14.85;;;;;;;1.53;100.00;102192.19;5065898;28;20068;-81
2023/01/25 00:07:42;;;;;;;23.35;14.13;;;;;;;1.86;100.00;102236.31;5070186;28;20056;-82
2023/01/25 00:10:09;;;;;;;20.58;13.23;;;;;;;2.18;100.00;102307.44;5071651;28;20120;-81
2023/01/25 00:12:36;;;;;;;22.13;13.82;;;;;;;1.20;100.00;102145.44;5074881;28;20446;-83
2023/01/25 00:15:03;;;;;;;22.60;13.90;;;;;;;1.26;100.00;102154.25;5071411;28;20092;-82
2023/01/25 00:17:29;;;;;;;21.85;13.93;;;;;;;1.78;100.00;102244.00;5066038;28;20048;-81
2023/01/25 00:19:56;;;;;;;18.02;11.95;;;;;;;1.36;100.00;102178.81;5058108;28;20074;-78
2023/01/25 00:22:23;;;;;;;20.10;13.13;;;;;;;1.76;100.00;102236.13;5060927;28;20436;-79
2023/01/25 00:24:49;;;;;;;23.75;14.57;;;;;;;2.26;100.00;102326.75;5068905;28;20055;-79
2023/01/25 00:27:16;;;;;;;22.10;14.05;;;;;;;2.06;100.00;102290.66;5071260;28;20420;-79
2023/01/25 00:29:42;;;;;;;23.25;13.55;;;;;;;2.27;100.00;102341.56;5073622;28;20044;-80
2023/01/25 00:32:09;;;;;;;20.42;13.27;;;;;;;2.26;100.00;102321.50;5071778;28;20154;-79
2023/01/25 00:34:37;;;;;;;23.75;14.85;;;;;;;1.90;100.00;102272.94;5083487;28;20804;-79
2023/01/25 00:37:35;;;;;;;22.70;14.38;;;;;;;2.28;100.00;102322.41;5052850;28;20056;-78
2023/01/25 00:40:02;;;;;;;23.35;14.13;;;;;;;1.40;100.00;102178.03;5075209;28;20500;-79
2023/01/25 00:42:29;;;;;;;23.05;14.50;;;;;;;2.21;100.00;102312.69;5053367;28;20108;-80
2023/01/25 00:44:56;;;;;;;25.77;14.13;;;;;;;2.02;100.00;102272.31;5085226;28;20044;-80
2023/01/25 00:47:22;;;;;;;22.02;13.55;;;;;;;1.80;100.00;102259.69;5097135;28;20165;-81
2023/01/25 00:49:49;;;;;;;20.95;13.57;;;;;;;1.61;100.00;102191.47;5097324;28;20055;-81
2023/01/25 00:52:15;;;;;;;23.67;14.65;;;;;;;1.05;100.00;102109.50;5081066;28;20044;-80
2023/01/25 00:54:42;;;;;;;22.70;14.15;;;;;;;1.64;100.00;102198.47;5099203;28;20059;-81
2023/01/25 00:57:09;;;;;;;23.52;14.38;;;;;;;1.95;100.00;102254.75;5080411;28;20068;-81
2023/01/25 00:59:36;;;;;;;21.88;13.75;;;;;;;1.29;100.00;102135.16;5087932;28;20063;-80
2023/01/25 01:02:02;;;;;;;25.98;14.65;;;;;;;1.64;100.00;102199.34;5079109;28;20128;-78
2023/01/25 01:04:30;;;;;;;21.98;13.65;;;;;;;1.28;100.00;102136.00;5049895;28;20413;-80
2023/01/25 01:06:56;;;;;;;21.77;13.43;;;;;;;1.71;100.00;102214.28;5073976;28;20139;-79
2023/01/25 01:09:23;;;;;;;21.30;13.70;;;;;;;2.02;100.00;102264.47;5074134;28;20048;-79
2023/01/25 01:11:50;;;;;;;21.40;13.38;;;;;;;2.09;100.00;102282.00;5071339;28;20055;-80
2023/01/25 01:14:17;;;;;;;22.67;14.18;;;;;;;2.28;100.00;102317.19;5072107;28;20048;-79
2023/01/25 01:16:44;;;;;;;21.73;13.48;;;;;;;1.73;100.00;102225.63;5074295;28;20072;-79
2023/01/25 01:19:11;;;;;;;22.35;13.10;;;;;;;2.10;100.00;102307.28;5069147;28;20052;-79
2023/01/25 01:21:38;;;;;;;20.88;13.35;;;;;;;1.89;100.00;102271.19;5066999;28;20044;-80
2023/01/25 01:24:05;;;;;;;22.77;14.05;;;;;;;1.94;100.00;102273.91;5069712;28;20053;-78
2023/01/25 01:26:32;;;;;;;20.48;12.70;;;;;;;2.01;100.00;102287.13;5059736;28;20048;-78
2023/01/25 01:28:59;;;;;;;20.88;12.77;;;;;;;2.06;100.00;102284.56;5064329;28;20049;-80
2023/01/25 01:31:26;;;;;;;20.88;13.00;;;;;;;2.26;100.00;102324.13;5068297;28;20059;-80
2023/01/25 01:33:57;;;;;;;23.17;13.98;;;;;;;2.26;100.00;102306.72;5082381;28;20044;-81
2023/01/25 01:36:26;;;;;;;22.23;13.38;;;;;;;1.61;100.00;102194.06;5077443;28;20056;-82
2023/01/25 01:38:53;;;;;;;24.10;14.93;;;;;;;2.21;100.00;102294.41;5068584;28;20032;-83
2023/01/25 01:41:20;;;;;;;19.60;12.32;;;;;;;1.94;100.00;102245.16;5072048;28;20052;-83
2023/01/25 01:43:46;;;;;;;19.23;12.68;;;;;;;2.25;100.00;102317.13;5070579;28;20071;-83
2023/01/25 01:46:27;;;;;;;20.25;13.75;;;;;;;2.23;100.00;102303.16;5056156;28;20052;-82
2023/01/25 01:49:18;;;;;;;20.23;12.98;;;;;;;1.62;100.00;102203.66;5078806;28;20041;-81
2023/01/25 01:51:49;;;;;;;21.15;12.95;;;;;;;1.73;100.00;102203.88;5077472;28;20148;-84
2023/01/25 01:54:27;;;;;;;;;;;;;;;2.28;100.00;102291.94;5072054;28;20103;-81
2023/01/25 01:56:59;;;;;;;21.33;13.38;;;;;;;1.64;100.00;102194.13;5067633;28;19921;-81
2023/01/25 01:59:32;;;;;;;21.27;12.93;;;;;;;1.13;100.00;102107.03;5070393;28;20074;-81
2023/01/25 02:01:59;;;;;;;20.05;12.93;;;;;;;1.66;100.00;102195.03;5074685;28;20076;-83
2023/01/25 02:04:27;;;;;;;19.25;12.70;;;;;;;2.17;100.00;102293.50;5074697;28;20075;-79
2023/01/25 02:07:01;;;;;;;20.02;12.77;;;;;;;2.18;100.00;102286.53;5082388;28;20505;-79
2023/01/25 02:09:30;;;;;;;19.48;13.98;;;;;;;1.72;100.00;102216.06;5048664;28;20064;-80
2023/01/25 02:11:58;;;;;;;18.25;12.38;;;;;;;1.88;100.00;102230.28;5083916;28;20050;-79
2023/01/25 02:14:27;;;;;;;20.65;13.18;;;;;;;2.07;100.00;102270.63;5075162;28;20155;-79
2023/01/25 02:16:55;;;;;;;17.88;11.93;;;;;;;1.53;100.00;102179.13;5073685;28;20497;-80
2023/01/25 02:20:02;;;;;;;20.00;13.15;;;;;;;2.16;100.00;102281.28;5072165;28;20075;-82
2023/01/25 02:22:41;;;;;;;21.33;12.85;;;;;;;1.88;100.00;102251.16;5058385;28;20056;-82
2023/01/25 02:25:08;;;;;;;20.67;12.88;;;;;;;2.09;100.00;102274.16;5077355;28;20150;-83
2023/01/25 02:27:41;;;;;;;19.80;12.52;;;;;;;1.68;100.00;102216.84;5077896;28;20132;-83
2023/01/25 02:30:08;;;;;;;16.63;11.57;;;;;;;2.09;100.00;102280.28;5070233;28;20048;-80
2023/01/25 02:32:36;;;;;;;19.15;11.95;;;;;;;1.98;100.00;102253.09;5060092;28;20188;-81
2023/01/25 02:35:03;;;;;;;16.95;11.18;;;;;;;1.93;100.00;102256.47;5078308;28;20071;-81
2023/01/25 02:37:30;;;;;;;16.52;11.88;;;;;;;1.88;100.00;102255.50;5069943;28;20122;-80
2023/01/25 02:39:57;;;;;;;18.02;11.52;;;;;;;1.69;100.00;102226.44;5086646;28;20056;-80
2023/01/25 02:42:23;;;;;;;18.23;12.25;;;;;;;1.15;100.00;102134.03;5080877;28;20062;-80
2023/01/25 02:44:50;;;;;;;18.83;13.07;;;;;;;1.00;100.00;102117.22;5066688;28;20049;-80
2023/01/25 02:47:17;;;;;;;19.58;12.75;;;;;;;0.89;100.00;102092.69;5073018;28;20064;-83
2023/01/25 02:49:44;;;;;;;20.42;13.35;;;;;;;1.90;100.00;102278.19;5077261;28;20080;-83
2023/01/25 02:52:10;;;;;;;20.13;12.18;;;;;;;0.66;100.00;102041.78;5080924;28;20135;-82
2023/01/25 02:54:37;;;;;;;19.40;12.93;;;;;;;1.02;100.00;102110.31;5072829;28;20055;-82
2023/01/25 02:57:04;;;;;;;19.17;11.93;;;;;;;0.32;100.00;101977.69;5076866;28;20051;-83
2023/01/25 02:59:30;;;;;;;18.67;12.30;;;;;;;1.95;100.00;102259.97;5077726;28;20720;-81
2023/01/25 03:01:57;;;;;;;19.90;12.68;;;;;;;0.62;100.00;102037.38;5079667;28;20543;-83
2023/01/25 03:04:24;;;;;;;20.88;12.75;;;;;;;2.00;100.00;102263.56;5075594;28;20513;-78
2023/01/25 03:06:50;;;;;;;22.00;13.93;;;;;;;2.05;100.00;102274.97;5069093;28;20048;-82
2023/01/25 03:09:17;;;;;;;22.65;14.02;;;;;;;1.46;100.00;102170.28;5081980;28;20101;-79
2023/01/25 03:11:44;;;;;;;22.00;14.20;;;;;;;1.97;100.00;102248.72;5087215;28;20094;-80
2023/01/25 03:14:10;;;;;;;21.30;14.23;;;;;;;2.05;100.00;102261.88;5090780;28;20044;-79
2023/01/25 03:16:37;;;;;;;21.63;13.65;;;;;;;1.54;100.00;102173.06;5068022;28;20049;-79
2023/01/25 03:19:03;;;;;;;23.45;15.13;;;;;;;1.76;100.00;102209.13;5067078;28;20068;-79
2023/01/25 03:21:30;;;;;;;22.02;14.70;;;;;;;2.03;100.00;102247.94;5073914;28;20056;-80
2023/01/25 03:23:59;;;;;;;24.50;15.05;;;;;;;1.69;100.00;102184.66;5071007;28;20067;-80
2023/01/25 03:26:27;;;;;;;24.55;15.13;;;;;;;2.10;100.00;102249.78;5080709;28;20063;-81
2023/01/25 03:28:56;;;;;;;22.77;14.38;;;;;;;1.54;100.00;102162.63;5074329;28;20048;-80
2023/01/25 03:31:23;;;;;;;20.33;12.95;;;;;;;1.65;100.00;102168.91;5064741;28;20053;-82
2023/01/25 03:33:50;;;;;;;18.55;12.48;;;;;;;1.34;100.00;102137.03;5074670;28;20052;-80
2023/01/25 03:36:17;;;;;;;19.27;12.90;;;;;;;1.52;100.00;102170.41;5075209;28;20078;-80
2023/01/25 03:38:43;;;;;;;24.17;14.02;;;;;;;1.77;100.00;102221.34;5057480;28;20079;-80
2023/01/25 03:41:12;;;;;;;22.33;13.82;;;;;;;1.86;100.00;102231.09;5063231;28;20045;-80
2023/01/25 03:43:39;;;;;;;21.83;14.25;;;;;;;1.80;100.00;102221.41;5080325;28;20068;-81
2023/01/25 03:46:05;;;;;;;24.23;14.98;;;;;;;1.83;100.00;102202.31;5068601;28;20144;-81
2023/01/25 03:48:32;;;;;;;23.95;14.40;;;;;;;1.73;100.00;102185.59;5056411;28;20059;-80
2023/01/25 03:50:59;;;;;;;23.02;13.70;;;;;;;1.67;100.00;102182.88;5076823;28;20044;-78
2023/01/25 03:53:28;;;;;;;22.30;13.90;;;;;;;2.00;100.00;102229.59;5073395;28;20048;-78
2023/01/25 03:56:00;;;;;;;23.48;14.63;;;;;;;1.92;100.00;102233.78;5078977;28;20067;-80
2023/01/25 03:58:28;;;;;;;23.55;14.38;;;;;;;1.79;100.00;102213.53;5060394;28;20053;-78
2023/01/25 04:00:57;;;;;;;19.40;12.90;;;;;;;1.83;100.00;102224.06;5065803;28;20114;-80
2023/01/25 04:03:24;;;;;;;23.77;14.27;;;;;;;1.84;100.00;102235.41;5081321;28;20048;-79
2023/01/25 04:05:52;;;;;;;24.80;14.07;;;;;;;1.85;100.00;102234.56;5075186;28;20497;-81
2023/01/25 04:08:19;;;;;;;24.08;14.18;;;;;;;1.84;100.00;102235.41;5074585;28;20041;-79
2023/01/25 04:11:04;;;;;;;20.45;12.75;;;;;;;1.35;100.00;102150.94;5071432;28;20067;-80
2023/01/25 04:13:35;;;;;;;22.45;14.02;;;;;;;1.42;100.00;102162.41;5074208;28;20068;-80
2023/01/25 04:16:02;;;;;;;;;;;;;;;1.75;100.00;102234.38;5070515;28;20134;-81
2023/01/25 04:18:29;;;;;;;22.25;13.27;;;;;;;1.62;100.00;102218.44;5075639;28;19920;-79
2023/01/25 04:20:56;;;;;;;26.13;15.60;;;;;;;1.61;100.00;102211.47;5078088;28;20425;-81
2023/01/25 04:23:24;;;;;;;25.83;15.48;;;;;;;1.64;100.00;102207.19;5078306;28;20060;-81
2023/01/25 04:26:04;;;;;;;27.25;15.52;;;;;;;1.70;100.00;102222.97;5076134;28;20051;-82
2023/01/25 04:28:31;;;;;;;27.92;15.68;;;;;;;1.70;100.00;102228.19;5078357;28;20060;-81
2023/01/25 04:30:58;;;;;;;23.92;14.77;;;;;;;0.60;100.00;102047.78;5078083;28;20121;-82
2023/01/25 04:33:25;;;;;;;23.13;14.20;;;;;;;1.36;100.00;102170.97;5083780;28;20044;-81
2023/01/25 04:35:52;;;;;;;21.65;13.45;;;;;;;1.68;100.00;102214.22;5090359;28;20052;-81
2023/01/25 04:38:18;;;;;;;26.48;15.00;;;;;;;0.66;100.00;102036.56;5084848;28;20025;-81
2023/01/25 04:40:45;;;;;;;27.30;16.50;;;;;;;0.61;100.00;102030.41;5078745;28;20025;-81
2023/01/25 04:43:13;;;;;;;25.20;15.05;;;;;;;1.64;100.00;102201.09;5085479;28;20048;-81
2023/01/25 04:45:40;;;;;;;25.85;15.88;;;;;;;1.47;100.00;102171.16;5070593;28;20051;-81
2023/01/25 04:48:09;;;;;;;24.52;15.13;;;;;;;1.25;100.00;102118.59;5072886;28;20056;-81
2023/01/25 04:50:36;;;;;;;24.38;14.15;;;;;;;1.30;100.00;102140.41;5074405;28;20143;-80
2023/01/25 04:53:04;;;;;;;29.38;15.95;;;;;;;1.65;100.00;102192.41;5071708;28;20037;-81
2023/01/25 04:55:32;;;;;;;22.95;14.10;;;;;;;1.66;100.00;102199.38;5066196;28;20083;-79
2023/01/25 04:58:00;;;;;;;23.88;14.88;;;;;;;1.57;100.00;102171.38;5077039;28;20075;-81
2023/01/25 05:00:28;;;;;;;24.13;14.63;;;;;;;1.63;100.00;102184.53;5067664;28;20053;-81
2023/01/25 05:02:55;;;;;;;19.00;12.23;;;;;;;1.56;100.00;102164.41;5073855;28;20044;-79
2023/01/25 05:05:24;;;;;;;21.75;13.73;;;;;;;1.72;100.00;102189.06;5073532;28;20044;-81
2023/01/25 05:07:50;;;;;;;20.58;13.00;;;;;;;1.34;100.00;102105.69;5074930;28;20060;-79
2023/01/25 05:10:17;;;;;;;18.40;11.85;;;;;;;1.58;100.00;102146.13;5078739;28;20052;-80
2023/01/25 05:12:44;;;;;;;18.95;11.70;;;;;;;0.94;100.00;102031.06;5073302;28;20045;-82
2023/01/25 05:15:10;;;;;;;18.52;12.13;;;;;;;1.69;100.00;102171.59;5055677;28;20053;-80
2023/01/25 05:17:38;;;;;;;16.58;11.38;;;;;;;1.21;100.00;102079.34;5069512;28;20060;-81
2023/01/25 05:20:05;;;;;;;18.67;12.07;;;;;;;1.03;100.00;102053.81;5075382;28;20166;-79
2023/01/25 05:22:31;;;;;;;17.92;11.85;;;;;;;1.57;100.00;102153.13;5068858;28;20055;-82
2023/01/25 05:24:58;;;;;;;20.17;12.57;;;;;;;1.47;100.00;102130.28;5075212;28;20049;-78
2023/01/25 05:27:25;;;;;;;17.27;12.18;;;;;;;1.50;100.00;102125.13;5081777;28;20063;-77
2023/01/25 05:29:51;;;;;;;18.70;12.48;;;;;;;1.09;100.00;102068.72;5078025;28;20113;-78
2023/01/25 05:32:21;;;;;;;21.38;13.20;;;;;;;1.60;100.00;102142.69;5078279;28;20140;-82
2023/01/25 05:34:48;;;;;;;22.38;13.57;;;;;;;1.75;100.00;102169.06;5067495;28;20055;-78
2023/01/25 05:37:18;;;;;;;18.70;12.00;;;;;;;1.79;100.00;102161.31;5078543;28;20080;-80
2023/01/25 05:39:44;;;;;;;19.55;13.13;;;;;;;1.31;100.00;102089.97;5081546;28;20501;-81
2023/01/25 05:42:13;;;;;;;18.70;12.32;;;;;;;0.93;100.00;102021.47;5072155;28;20147;-79
2023/01/25 05:44:40;;;;;;;19.77;13.35;;;;;;;1.18;100.00;102076.69;5073243;28;20113;-80
2023/01/25 05:47:10;;;;;;;20.60;13.05;;;;;;;1.76;100.00;102157.78;5052508;28;20136;-79
2023/01/25 05:49:37;;;;;;;;;;;;;;;1.82;100.00;102153.53;5081425;28;20052;-78
2023/01/25 05:52:03;;;;;;;20.02;13.02;;;;;;;1.84;100.00;102167.50;5071402;28;19920;-80
2023/01/25 05:54:30;;;;;;;21.33;14.00;;;;;;;1.36;100.00;102082.25;5065350;28;20931;-80
2023/01/25 05:56:56;;;;;;;21.85;14.00;;;;;;;1.51;100.00;102108.59;5073507;28;20052;-79
2023/01/25 05:59:23;;;;;;;22.67;14.63;;;;;;;1.71;100.00;102140.28;5080622;28;20063;-80
2023/01/25 06:01:51;;;;;;;21.85;14.02;;;;;;;1.08;100.00;102035.66;5073538;28;20075;-78
2023/01/25 06:04:17;;;;;;;22.77;14.52;;;;;;;0.97;100.00;102006.72;5073889;28;20040;-80
2023/01/25 06:06:44;;;;;;;21.17;14.18;;;;;;;0.89;100.00;102006.63;5070742;28;20048;-80
2023/01/25 06:09:11;;;;;;;23.40;13.93;;;;;;;1.85;100.00;102157.06;5070567;28;20056;-80
2023/01/25 06:11:38;;;;;;;19.52;13.65;;;;;;;1.84;100.00;102151.81;5061122;28;20083;-80
2023/01/25 06:14:05;;;;;;;22.02;14.63;;;;;;;1.51;100.00;102107.72;5065017;28;20043;-80
2023/01/25 06:16:31;;;;;;;21.73;13.77;;;;;;;1.62;100.00;102133.16;5072202;28;20048;-80
2023/01/25 06:18:58;;;;;;;21.48;14.05;;;;;;;1.36;100.00;102090.06;5078660;28;20058;-80
2023/01/25 06:21:24;;;;;;;23.30;14.45;;;;;;;1.59;100.00;102133.09;5079788;28;20053;-79
2023/01/25 06:23:51;;;;;;;23.92;14.55;;;;;;;0.99;100.00;102029.38;5075261;28;20147;-79
2023/01/25 06:26:17;;;;;;;22.70;14.43;;;;;;;1.72;100.00;102156.00;5081378;28;20508;-79
2023/01/25 06:28:44;;;;;;;23.20;14.52;;;;;;;1.37;100.00;102095.31;5072631;28;20056;-78
2023/01/25 06:31:15;;;;;;;24.23;14.95;;;;;;;1.69;100.00;102147.22;5069401;28;20508;-79
2023/01/25 06:33:45;;;;;;;23.10;15.05;;;;;;;1.65;100.00;102141.06;5074114;28;20056;-80
2023/01/25 06:36:14;;;;;;;24.00;14.90;;;;;;;1.56;100.00;102124.38;5076389;28;20048;-79
2023/01/25 06:38:41;;;;;;;25.73;15.35;;;;;;;1.17;100.00;102065.38;5071523;28;20048;-78
2023/01/25 06:41:10;;;;;;;23.65;15.23;;;;;;;1.11;100.00;102072.19;5071740;28;20140;-79
2023/01/25 06:43:38;;;;;;;26.23;16.30;;;;;;;1.45;100.00;102125.88;5069625;28;20493;-79
2023/01/25 06:46:07;;;;;;;25.08;15.38;;;;;;;1.45;100.00;102131.97;5054725;28;20095;-80
2023/01/25 06:48:34;;;;;;;25.10;15.98;;;;;;;1.44;100.00;102132.84;5071672;28;20056;-79
2023/01/25 06:51:04;;;;;;;25.65;15.20;;;;;;;1.59;100.00;102167.03;5074492;28;20080;-80
2023/01/25 06:53:34;;;;;;;20.90;14.43;;;;;;;1.17;100.00;102093.19;5063929;28;20041;-78
2023/01/25 06:56:06;;;;;;;26.58;15.80;;;;;;;0.57;100.00;101989.50;5071135;28;20044;-79
2023/01/25 06:58:36;;;;;;;24.60;16.30;;;;;;;1.50;100.00;102145.13;5073558;28;20053;-79
2023/01/25 07:01:11;;;;;;;27.33;15.15;;;;;;;0.92;100.00;102021.44;5070473;28;20048;-79
2023/01/25 07:03:39;;;;;;;24.98;15.80;;;;;;;1.66;100.00;102142.81;5070473;28;20206;-81
2023/01/25 07:06:08;;;;;;;26.15;16.17;;;;;;;1.65;100.00;102150.63;5070975;28;20048;-80
2023/01/25 07:08:35;;;;;;;23.00;14.55;;;;;;;1.71;100.00;102148.13;5070799;28;20055;-81
2023/01/25 07:11:05;;;;;;;23.80;14.90;;;;;;;1.69;100.00;102153.31;5079363;28;20079;-79
2023/01/25 07:13:33;;;;;;;24.10;15.57;;;;;;;1.02;100.00;102037.28;5079559;28;20143;-80
2023/01/25 07:16:05;;;;;;;23.90;14.77;;;;;;;1.47;100.00;102109.41;5060615;28;20158;-81
2023/01/25 07:18:32;;;;;;;25.15;14.70;;;;;;;1.03;100.00;102039.03;5070229;28;20055;-78
2023/01/25 07:21:04;;;;;;;21.27;14.30;;;;;;;0.58;100.00;101979.09;5068110;28;20045;-80
2023/01/25 07:23:33;;;;;;;19.77;13.15;;;;;;;1.62;100.00;102177.56;5070529;28;20056;-79
2023/01/25 07:26:00;;;;;;;24.42;15.15;;;;;;;1.57;100.00;102152.22;5075079;28;20138;-79
2023/01/25 07:28:27;;;;;;;21.92;14.30;;;;;;;1.00;100.00;102070.28;5068306;28;20049;-80
2023/01/25 07:30:54;;;;;;;22.23;13.88;;;;;;;1.24;100.00;102097.69;5046885;28;20048;-80
2023/01/25 07:33:21;;;;;;;23.27;13.90;;;;;;;0.56;100.00;102000.75;5071559;28;20041;-80
2023/01/25 07:35:49;;;;;;;25.67;16.13;;;;;;;0.80;100.00;102015.97;5069633;28;20057;-79
2023/01/25 07:38:16;;;;;;;23.90;15.25;;;;;;;1.42;100.00;102126.69;5078971;28;20049;-79
2023/01/25 07:40:43;;;;;;;25.73;15.63;;;;;;;1.40;100.00;102128.44;5062198;28;20159;-80
2023/01/25 07:43:09;;;;;;;25.25;15.20;;;;;;;1.28;100.00;102095.13;5073869;28;20051;-79
2023/01/25 07:45:36;;;;;;;26.45;15.25;;;;;;;1.37;100.00;102112.72;5066590;28;20055;-81
2023/01/25 07:48:09;;;;;;;26.95;17.67;;;;;;;1.61;100.00;102144.47;5071566;28;20535;-79
2023/01/25 07:50:35;;;;;;;26.98;16.27;;;;;;;1.18;100.00;102063.63;5071191;28;20460;-79
2023/01/25 07:53:02;;;;;;;26.50;16.40;;;;;;;1.65;100.00;102146.28;5066030;28;20059;-80
2023/01/25 07:55:29;;;;;;;25.55;15.40;;;;;;;1.60;100.00;102131.38;5066707;28;20379;-80
2023/01/25 07:57:56;;;;;;;25.27;16.42;;;;;;;1.34;100.00;102086.56;5067185;28;20056;-82
2023/01/25 08:00:23;;;;;;;25.70;16.33;;;;;;;0.72;100.00;101976.75;5074950;28;20052;-80
2023/01/25 08:02:51;;;;;;;25.90;15.25;;;;;;;1.38;100.00;102091.88;5073243;28;20484;-79
2023/01/25 08:05:18;;;;;;;30.85;18.38;;;;;;;1.27;100.00;102069.88;5066103;28;20058;-80
2023/01/25 08:07:47;;;;;;;30.40;18.10;;;;;;;1.73;100.00;102147.28;5073945;28;20490;-78
2023/01/25 08:10:14;;;;;;;29.58;17.50;;;;;;;1.57;100.00;102116.56;5069556;28;20044;-80
2023/01/25 08:12:45;;;;;;;31.17;18.10;;;;;;;1.43;100.00;102081.47;5080251;28;20131;-78
2023/01/25 08:15:12;;;;;;;30.60;17.30;;;;;;;1.54;100.00;102097.34;5073612;28;20044;-78
2023/01/25 08:17:39;;;;;;;30.27;17.67;;;;;;;1.10;100.00;102028.72;5059439;28;20049;-79
2023/01/25 08:20:07;;;;;;;29.73;17.52;;;;;;;1.60;100.00;102119.19;5067282;28;20072;-78
2023/01/25 08:22:33;;;;;;;24.88;15.45;;;;;;;1.37;100.00;102086.59;5065403;28;20049;-78
2023/01/25 08:25:00;;;;;;;24.90;16.02;;;;;;;1.25;100.00;102084.66;5065983;28;20071;-80
2023/01/25 08:27:27;;;;;;;26.08;15.45;;;;;;;1.69;100.00;102155.94;5067616;28;20066;-80
2023/01/25 08:29:54;;;;;;;26.48;16.10;;;;;;;0.96;100.00;102024.13;5069899;28;20079;-80
2023/01/25 08:32:21;;;;;;;26.95;16.38;;;;;;;1.22;100.00;102062.84;5068485;28;20059;-78
2023/01/25 08:34:47;;;;;;;25.27;15.90;;;;;;;1.68;100.00;102135.00;5066999;28;20048;-80
2023/01/25 08:37:14;;;;;;;25.42;14.98;;;;;;;1.42;100.00;102078.88;5055250;28;20064;-79
2023/01/25 08:39:40;;;;;;;24.70;15.60;;;;;;;1.01;100.00;102024.22;5067946;28;20051;-79
2023/01/25 08:42:07;;;;;;;24.85;15.13;;;;;;;0.89;100.00;102003.13;5060378;28;20044;-79
2023/01/25 08:44:33;;;;;;;27.42;15.77;;;;;;;1.25;100.00;102074.22;5068028;28;20059;-79
2023/01/25 08:47:00;;;;;;;25.63;15.85;;;;;;;1.56;100.00;102138.28;5072578;28;20048;-78
2023/01/25 08:49:27;;;;;;;24.90;15.00;;;;;;;1.28;100.00;102092.53;5048132;28;20060;-78
2023/01/25 08:51:53;;;;;;;26.95;15.65;;;;;;;1.30;100.00;102097.78;5073717;28;20048;-78
2023/01/25 08:54:20;;;;;;;27.70;16.60;;;;;;;1.37;100.00;102097.06;5071592;28;20556;-79
2023/01/25 08:56:46;;;;;;;20.92;12.98;;;;;;;0.80;100.00;101987.28;5055561;28;20057;-80
2023/01/25 08:59:13;;;;;;;24.40;14.75;;;;;;;1.30;100.00;102076.91;5070960;28;20049;-79
2023/01/25 09:01:40;;;;;;;24.67;14.73;;;;;;;1.54;100.00;102110.41;5075935;28;20049;-78
2023/01/25 09:04:06;;;;;;;25.25;15.68;;;;;;;1.25;100.00;102049.88;5069678;28;20563;-80
2023/01/25 09:06:33;;;;;;;26.20;15.30;;;;;;;1.55;100.00;102093.88;5059559;28;20047;-79
2023/01/25 09:08:59;;;;;;;26.08;15.25;;;;;;;1.58;100.00;102105.22;5067664;28;20055;-79
2023/01/25 09:11:26;;;;;;;27.20;15.35;;;;;;;1.11;100.00;102036.56;5060599;28;20049;-80
2023/01/25 09:13:53;;;;;;;25.88;15.65;;;;;;;1.44;100.00;102067.56;5060833;28;20079;-79
2023/01/25 09:16:27;;;;;;;26.38;16.02;;;;;;;1.28;100.00;102029.00;5060713;28;20036;-81
2023/01/25 09:18:56;;;;;;;25.40;15.45;;;;;;;1.84;100.00;102112.63;5069152;28;20126;-79
2023/01/25 09:21:23;;;;;;;23.52;14.35;;;;;;;1.72;100.00;102087.22;5053939;28;20055;-78
2023/01/25 09:23:51;;;;;;;23.73;14.57;;;;;;;1.85;100.00;102103.94;5059069;28;20362;-78
2023/01/25 09:26:32;;;;;;;25.17;14.90;;;;;;;1.86;100.00;102101.38;5070159;28;20139;-79
2023/01/25 09:28:59;;;;;;;23.88;15.07;;;;;;;1.79;100.00;102080.34;5060509;28;20053;-79
2023/01/25 09:31:25;;;;;;;24.27;15.25;;;;;;;1.73;100.00;102079.38;5050662;28;20055;-79
2023/01/25 09:33:56;;;;;;;24.50;15.15;;;;;;;1.80;100.00;102084.69;5072600;28;20040;-79
2023/01/25 09:36:23;;;;;;;24.48;14.82;;;;;;;1.59;100.00;102041.72;5068914;28;20056;-79
2023/01/25 09:38:50;;;;;;;24.85;15.02;;;;;;;1.42;100.00;102011.84;5063405;28;20056;-78
2023/01/25 09:41:42;;;;;;;27.55;15.65;;;;;;;1.58;100.00;102039.06;5065402;28;20059;-79
2023/01/25 09:44:35;;;;;;;25.25;15.68;;;;;;;1.68;100.00;102062.78;5068662;28;20131;-79
2023/01/25 09:47:14;;;;;;;26.15;15.88;;;;;;;1.86;100.00;102097.88;5070828;28;20424;-80
2023/01/25 09:49:46;;;;;;;25.65;16.00;;;;;;;1.86;100.00;102103.97;5077443;28;20053;-80
2023/01/25 09:52:52;;;;;;;26.90;16.67;;;;;;;1.89;100.00;102098.78;5061552;28;20075;-78
2023/01/25 09:55:23;;;;;;;24.65;15.77;;;;;;;1.14;100.00;101986.16;5066179;28;20045;-81
2023/01/25 09:57:52;;;;;;;27.45;16.02;;;;;;;1.51;100.00;102058.13;5065506;28;20160;-79
2023/01/25 10:00:27;;;;;;;26.52;16.50;;;;;;;1.69;100.00;102097.59;5071040;28;20650;-79
2023/01/25 10:03:20;;;;;;;25.85;15.25;;;;;;;1.40;100.00;102029.25;5068367;28;20048;-80
2023/01/25 10:05:49;;;;;;;27.85;16.30;;;;;;;1.79;100.00;102098.63;5064601;28;20076;-78
2023/01/25 10:08:16;;;;;;;25.48;14.85;;;;;;;1.85;100.00;102093.50;5069131;28;20106;-80
2023/01/25 10:10:47;;;;;;;27.27;15.90;;;;;;;1.75;100.00;102085.50;5064334;28;20454;-80
2023/01/25 10:13:20;;;;;;;28.85;15.52;;;;;;;1.84;100.00;102083.91;5078584;28;20083;-79
2023/01/25 10:15:51;;;;;;;26.15;15.88;;;;;;;1.37;100.00;102013.53;5070209;28;20052;-80
2023/01/25 10:18:30;;;;;;;28.42;16.42;;;;;;;1.71;100.00;102086.34;5066184;28;20140;-78
2023/01/25 10:21:00;;;;;;;27.60;15.27;;;;;;;1.48;100.00;102040.69;5070486;28;20654;-79
2023/01/25 10:23:30;;;;;;;32.00;17.75;;;;;;;1.71;100.00;102077.63;5063759;28;20147;-78
2023/01/25 10:25:59;;;;;;;27.30;16.88;;;;;;;1.61;100.00;102046.97;5062626;28;20057;-79
2023/01/25 10:28:52;;;;;;;27.58;16.45;;;;;;;1.48;100.00;102035.44;5062879;28;20053;-79
2023/01/25 10:31:28;;;;;;;36.90;18.63;;;;;;;1.89;100.00;102067.44;5065482;28;20060;-79
2023/01/25 10:33:55;;;;;;;32.15;17.42;;;;;;;1.91;100.00;102064.84;5063377;28;20055;-79
2023/01/25 10:36:28;;;;;;;31.52;17.15;;;;;;;1.75;100.00;102038.50;5071088;28;20481;-79
2023/01/25 10:38:59;;;;;;;33.95;17.85;;;;;;;1.72;100.00;102021.91;5062966;28;20140;-80
2023/01/25 10:41:36;;;;;;;35.00;18.83;;;;;;;1.37;100.00;101961.31;5064551;28;20125;-80
2023/01/25 10:44:23;;;;;;;33.42;18.10;;;;;;;1.52;100.00;102002.44;5069664;28;20072;-81
2023/01/25 10:47:15;;;;;;;36.42;18.95;;;;;;;1.66;100.00;102042.72;5063542;28;20058;-79
2023/01/25 10:49:53;;;;;;;34.97;18.40;;;;;;;1.60;100.00;102033.03;5070917;28;20135;-81
2023/01/25 10:52:23;;;;;;;37.20;18.98;;;;;;;0.42;100.00;101831.09;5072432;28;20139;-80
2023/01/25 10:55:19;;;;;;;35.90;18.75;;;;;;;1.60;100.00;102024.31;5072315;28;20247;-79
2023/01/25 10:57:52;;;;;;;34.53;18.55;;;;;;;1.62;100.00;102022.63;5067804;28;20053;-79
2023/01/25 11:00:36;;;;;;;36.92;18.70;;;;;;;1.61;100.00;102002.56;5077588;28;20048;-79
2023/01/25 11:03:03;;;;;;;36.75;19.77;;;;;;;1.83;100.00;102015.13;5075751;28;20134;-79
2023/01/25 11:05:33;;;;;;;30.60;16.92;;;;;;;1.78;100.00;102008.94;5079164;28;20055;-81
2023/01/25 11:08:34;;;;;;;28.92;16.88;;;;;;;1.85;100.00;102013.41;5078364;28;20048;-81
2023/01/25 11:11:13;;;;;;;;;;;;;;;1.77;100.00;102005.44;5075704;28;20087;-80
2023/01/25 11:13:40;;;;;;;31.40;16.92;;;;;;;1.69;100.00;101996.63;5072478;28;20673;-80
2023/01/25 11:16:22;;;;;;;29.52;17.38;;;;;;;1.66;100.00;101998.31;5077331;28;20045;-79
2023/01/25 11:18:54;;;;;;;30.35;16.52;;;;;;;1.55;100.00;101977.28;5070041;28;20056;-81